sensor_id;sensor_type;location;lat;lon;timestamp;P1;durP1;ratioP1;P2;durP2;ratioP2
8652;SDS011;4364;52.426;9.424;2023-01-10T00:00:23;23.93;;;14.13;;
8652;SDS011;4364;52.426;9.424;2023-01-10T00:02:52;25.43;;;13.20;;
8652;SDS011;4364;52.426;9.424;2023-01-10T00:05:18;21.53;;;13.87;;
8652;SDS011;4364;52.426;9.424;2023-01-10T00:07:45;25.20;;;13.83;;
8652;SDS011;4364;52.426;9.424;2023-01-10T00:10:11;24.70;;;14.23;;
8652;SDS011;4364;52.426;9.424;2023-01-10T00:12:39;27.37;;;15.47;;
8652;SDS011;4364;52.426;9.424;2023-01-10T00:15:24;26.60;;;14.47;;
8652;SDS011;4364;52.426;9.424;2023-01-10T00:17:50;26.93;;;13.97;;
8652;SDS011;4364;52.426;9.424;2023-01-10T00:20:17;28.27;;;14.27;;
8652;SDS011;4364;52.426;9.424;2023-01-10T00:22:44;23.83;;;14.27;;
8652;SDS011;4364;52.426;9.424;2023-01-10T00:25:11;25.87;;;14.20;;
8652;SDS011;4364;52.426;9.424;2023-01-10T00:27:37;24.23;;;14.03;;
8652;SDS011;4364;52.426;9.424;2023-01-10T00:30:05;23.60;;;14.13;;
8652;SDS011;4364;52.426;9.424;2023-01-10T00:32:39;28.47;;;14.37;;
8652;SDS011;4364;52.426;9.424;2023-01-10T00:35:07;31.80;;;15.20;;
8652;SDS011;4364;52.426;9.424;2023-01-10T00:37:33;29.97;;;14.23;;
8652;SDS011;4364;52.426;9.424;2023-01-10T00:40:02;23.30;;;13.67;;
8652;SDS011;4364;52.426;9.424;2023-01-10T00:42:29;24.47;;;14.70;;
8652;SDS011;4364;52.426;9.424;2023-01-10T00:45:14;23.77;;;13.67;;
8652;SDS011;4364;52.426;9.424;2023-01-10T00:47:41;30.20;;;13.63;;
8652;SDS011;4364;52.426;9.424;2023-01-10T00:50:08;23.23;;;13.57;;
8652;SDS011;4364;52.426;9.424;2023-01-10T00:52:35;24.30;;;13.63;;
8652;SDS011;4364;52.426;9.424;2023-01-10T00:55:02;24.63;;;13.80;;
8652;SDS011;4364;52.426;9.424;2023-01-10T00:57:29;23.63;;;13.17;;
8652;SDS011;4364;52.426;9.424;2023-01-10T00:59:55;20.97;;;13.57;;
8652;SDS011;4364;52.426;9.424;2023-01-10T01:02:22;24.60;;;13.43;;
8652;SDS011;4364;52.426;9.424;2023-01-10T01:04:48;22.80;;;13.43;;
8652;SDS011;4364;52.426;9.424;2023-01-10T01:07:15;26.53;;;14.03;;
8652;SDS011;4364;52.426;9.424;2023-01-10T01:09:41;25.67;;;14.07;;
8652;SDS011;4364;52.426;9.424;2023-01-10T01:12:28;26.80;;;14.47;;
8652;SDS011;4364;52.426;9.424;2023-01-10T01:14:54;22.57;;;13.07;;
8652;SDS011;4364;52.426;9.424;2023-01-10T01:17:21;24.27;;;13.70;;
8652;SDS011;4364;52.426;9.424;2023-01-10T01:19:47;22.97;;;13.57;;
8652;SDS011;4364;52.426;9.424;2023-01-10T01:22:14;19.33;;;12.50;;
8652;SDS011;4364;52.426;9.424;2023-01-10T01:24:40;21.20;;;13.87;;
8652;SDS011;4364;52.426;9.424;2023-01-10T01:27:07;21.27;;;12.97;;
8652;SDS011;4364;52.426;9.424;2023-01-10T01:29:33;20.83;;;12.87;;
8652;SDS011;4364;52.426;9.424;2023-01-10T01:32:08;26.47;;;13.10;;
8652;SDS011;4364;52.426;9.424;2023-01-10T01:34:35;23.70;;;13.43;;
8652;SDS011;4364;52.426;9.424;2023-01-10T01:37:02;24.40;;;13.23;;
8652;SDS011;4364;52.426;9.424;2023-01-10T01:39:28;23.17;;;13.07;;
8652;SDS011;4364;52.426;9.424;2023-01-10T01:41:54;23.03;;;13.10;;
8652;SDS011;4364;52.426;9.424;2023-01-10T01:44:29;17.67;;;11.67;;
8652;SDS011;4364;52.426;9.424;2023-01-10T01:47:02;18.47;;;11.10;;
8652;SDS011;4364;52.426;9.424;2023-01-10T01:49:29;23.57;;;11.83;;
8652;SDS011;4364;52.426;9.424;2023-01-10T01:52:00;22.93;;;10.37;;
8652;SDS011;4364;52.426;9.424;2023-01-10T01:54:30;21.43;;;11.83;;
8652;SDS011;4364;52.426;9.424;2023-01-10T01:57:03;16.70;;;10.53;;
8652;SDS011;4364;52.426;9.424;2023-01-10T01:59:35;14.53;;;9.90;;
8652;SDS011;4364;52.426;9.424;2023-01-10T02:02:15;20.37;;;10.60;;
8652;SDS011;4364;52.426;9.424;2023-01-10T02:07:35;15.67;;;9.07;;
8652;SDS011;4364;52.426;9.424;2023-01-10T02:10:05;19.70;;;9.60;;
8652;SDS011;4364;52.426;9.424;2023-01-10T02:12:41;17.83;;;9.40;;
8652;SDS011;4364;52.426;9.424;2023-01-10T02:15:10;16.93;;;9.67;;
8652;SDS011;4364;52.426;9.424;2023-01-10T02:17:37;18.00;;;9.47;;
8652;SDS011;4364;52.426;9.424;2023-01-10T02:20:05;19.07;;;9.27;;
8652;SDS011;4364;52.426;9.424;2023-01-10T02:28:47;16.17;;;8.10;;
8652;SDS011;4364;52.426;9.424;2023-01-10T02:34:17;14.90;;;7.23;;
8652;SDS011;4364;52.426;9.424;2023-01-10T02:39:23;14.50;;;7.00;;
8652;SDS011;4364;52.426;9.424;2023-01-10T02:42:07;13.87;;;6.70;;
8652;SDS011;4364;52.426;9.424;2023-01-10T02:44:50;9.73;;;5.73;;
8652;SDS011;4364;52.426;9.424;2023-01-10T02:47:23;10.30;;;6.27;;
8652;SDS011;4364;52.426;9.424;2023-01-10T02:49:50;12.03;;;5.43;;
8652;SDS011;4364;52.426;9.424;2023-01-10T02:52:18;11.03;;;6.20;;
8652;SDS011;4364;52.426;9.424;2023-01-10T02:54:49;12.70;;;5.30;;
8652;SDS011;4364;52.426;9.424;2023-01-10T03:03:11;12.33;;;5.57;;
8652;SDS011;4364;52.426;9.424;2023-01-10T03:08:34;11.27;;;4.97;;
8652;SDS011;4364;52.426;9.424;2023-01-10T03:11:06;8.90;;;4.13;;
8652;SDS011;4364;52.426;9.424;2023-01-10T03:13:36;10.83;;;4.87;;
8652;SDS011;4364;52.426;9.424;2023-01-10T03:16:07;7.50;;;4.30;;
8652;SDS011;4364;52.426;9.424;2023-01-10T03:18:40;12.87;;;4.57;;
8652;SDS011;4364;52.426;9.424;2023-01-10T03:21:11;8.40;;;4.10;;
8652;SDS011;4364;52.426;9.424;2023-01-10T03:23:38;12.50;;;4.67;;
8652;SDS011;4364;52.426;9.424;2023-01-10T03:26:06;9.63;;;4.37;;
8652;SDS011;4364;52.426;9.424;2023-01-10T03:28:40;10.40;;;4.50;;
8652;SDS011;4364;52.426;9.424;2023-01-10T03:31:14;11.10;;;4.37;;
8652;SDS011;4364;52.426;9.424;2023-01-10T03:33:48;12.33;;;4.70;;
8652;SDS011;4364;52.426;9.424;2023-01-10T03:39:06;15.30;;;4.50;;
8652;SDS011;4364;52.426;9.424;2023-01-10T03:41:45;13.10;;;4.40;;
8652;SDS011;4364;52.426;9.424;2023-01-10T03:44:30;11.57;;;4.40;;
8652;SDS011;4364;52.426;9.424;2023-01-10T03:50:14;15.60;;;5.13;;
8652;SDS011;4364;52.426;9.424;2023-01-10T03:52:45;12.83;;;5.20;;
8652;SDS011;4364;52.426;9.424;2023-01-10T03:55:14;15.60;;;5.70;;
8652;SDS011;4364;52.426;9.424;2023-01-10T03:57:44;12.53;;;5.03;;
8652;SDS011;4364;52.426;9.424;2023-01-10T04:00:12;18.13;;;5.30;;
8652;SDS011;4364;52.426;9.424;2023-01-10T04:02:39;11.57;;;4.83;;
8652;SDS011;4364;52.426;9.424;2023-01-10T04:05:06;12.20;;;4.90;;
8652;SDS011;4364;52.426;9.424;2023-01-10T04:07:33;10.30;;;5.00;;
8652;SDS011;4364;52.426;9.424;2023-01-10T04:10:00;12.80;;;4.93;;
8652;SDS011;4364;52.426;9.424;2023-01-10T04:12:26;13.50;;;5.20;;
8652;SDS011;4364;52.426;9.424;2023-01-10T04:14:52;15.00;;;5.40;;
8652;SDS011;4364;52.426;9.424;2023-01-10T04:17:19;14.67;;;4.93;;
8652;SDS011;4364;52.426;9.424;2023-01-10T04:19:45;15.47;;;5.07;;
8652;SDS011;4364;52.426;9.424;2023-01-10T04:22:12;20.63;;;5.57;;
8652;SDS011;4364;52.426;9.424;2023-01-10T04:24:38;16.50;;;5.73;;
8652;SDS011;4364;52.426;9.424;2023-01-10T04:27:05;11.83;;;5.63;;
8652;SDS011;4364;52.426;9.424;2023-01-10T04:29:32;10.23;;;5.30;;
8652;SDS011;4364;52.426;9.424;2023-01-10T04:31:58;10.80;;;4.83;;
8652;SDS011;4364;52.426;9.424;2023-01-10T04:34:24;15.93;;;5.50;;
8652;SDS011;4364;52.426;9.424;2023-01-10T04:36:51;14.90;;;5.90;;
8652;SDS011;4364;52.426;9.424;2023-01-10T04:39:17;14.63;;;5.57;;
8652;SDS011;4364;52.426;9.424;2023-01-10T04:41:44;15.00;;;5.97;;
8652;SDS011;4364;52.426;9.424;2023-01-10T04:44:10;14.90;;;5.63;;
8652;SDS011;4364;52.426;9.424;2023-01-10T04:46:37;13.60;;;5.73;;
8652;SDS011;4364;52.426;9.424;2023-01-10T04:49:03;12.87;;;5.87;;
8652;SDS011;4364;52.426;9.424;2023-01-10T04:51:30;14.67;;;5.87;;
8652;SDS011;4364;52.426;9.424;2023-01-10T04:53:57;15.90;;;6.27;;
8652;SDS011;4364;52.426;9.424;2023-01-10T04:56:23;10.23;;;5.60;;
8652;SDS011;4364;52.426;9.424;2023-01-10T04:58:50;14.53;;;6.10;;
8652;SDS011;4364;52.426;9.424;2023-01-10T05:01:20;13.87;;;6.00;;
8652;SDS011;4364;52.426;9.424;2023-01-10T05:03:51;17.53;;;7.00;;
8652;SDS011;4364;52.426;9.424;2023-01-10T05:06:20;16.53;;;6.20;;
8652;SDS011;4364;52.426;9.424;2023-01-10T05:08:47;15.80;;;6.40;;
8652;SDS011;4364;52.426;9.424;2023-01-10T05:11:14;15.00;;;6.60;;
8652;SDS011;4364;52.426;9.424;2023-01-10T05:13:40;19.43;;;6.73;;
8652;SDS011;4364;52.426;9.424;2023-01-10T05:16:07;18.67;;;7.00;;
8652;SDS011;4364;52.426;9.424;2023-01-10T05:18:34;19.60;;;6.77;;
8652;SDS011;4364;52.426;9.424;2023-01-10T05:21:05;24.87;;;7.90;;
8652;SDS011;4364;52.426;9.424;2023-01-10T05:23:33;15.97;;;6.63;;
8652;SDS011;4364;52.426;9.424;2023-01-10T05:26:08;18.37;;;6.90;;
8652;SDS011;4364;52.426;9.424;2023-01-10T05:28:37;17.57;;;7.43;;
8652;SDS011;4364;52.426;9.424;2023-01-10T05:31:05;21.20;;;7.77;;
8652;SDS011;4364;52.426;9.424;2023-01-10T05:33:32;18.67;;;7.23;;
8652;SDS011;4364;52.426;9.424;2023-01-10T05:36:00;19.50;;;7.57;;
8652;SDS011;4364;52.426;9.424;2023-01-10T05:38:30;20.40;;;7.90;;
8652;SDS011;4364;52.426;9.424;2023-01-10T05:40:58;24.10;;;8.07;;
8652;SDS011;4364;52.426;9.424;2023-01-10T05:43:26;17.80;;;7.87;;
8652;SDS011;4364;52.426;9.424;2023-01-10T05:45:53;17.03;;;7.70;;
8652;SDS011;4364;52.426;9.424;2023-01-10T05:48:20;19.77;;;7.77;;
8652;SDS011;4364;52.426;9.424;2023-01-10T05:50:47;22.13;;;8.40;;
8652;SDS011;4364;52.426;9.424;2023-01-10T05:53:15;25.37;;;8.67;;
8652;SDS011;4364;52.426;9.424;2023-01-10T05:55:42;26.13;;;8.50;;
8652;SDS011;4364;52.426;9.424;2023-01-10T05:58:09;22.13;;;8.50;;
8652;SDS011;4364;52.426;9.424;2023-01-10T06:00:38;21.67;;;8.47;;
8652;SDS011;4364;52.426;9.424;2023-01-10T06:03:05;23.30;;;8.30;;
8652;SDS011;4364;52.426;9.424;2023-01-10T06:05:32;23.93;;;9.60;;
8652;SDS011;4364;52.426;9.424;2023-01-10T06:07:58;22.03;;;8.57;;
8652;SDS011;4364;52.426;9.424;2023-01-10T06:10:25;24.23;;;8.73;;
8652;SDS011;4364;52.426;9.424;2023-01-10T06:12:52;24.30;;;8.47;;
8652;SDS011;4364;52.426;9.424;2023-01-10T06:15:19;19.63;;;9.13;;
8652;SDS011;4364;52.426;9.424;2023-01-10T06:17:45;18.80;;;8.30;;
8652;SDS011;4364;52.426;9.424;2023-01-10T06:20:12;22.73;;;9.00;;
8652;SDS011;4364;52.426;9.424;2023-01-10T06:22:39;20.37;;;8.87;;
8652;SDS011;4364;52.426;9.424;2023-01-10T06:25:10;26.23;;;9.10;;
8652;SDS011;4364;52.426;9.424;2023-01-10T06:27:41;23.57;;;8.70;;
8652;SDS011;4364;52.426;9.424;2023-01-10T06:30:09;20.80;;;9.10;;
8652;SDS011;4364;52.426;9.424;2023-01-10T06:32:37;23.53;;;9.37;;
8652;SDS011;4364;52.426;9.424;2023-01-10T06:35:04;22.27;;;9.03;;
8652;SDS011;4364;52.426;9.424;2023-01-10T06:37:31;20.50;;;9.27;;
8652;SDS011;4364;52.426;9.424;2023-01-10T06:39:58;23.30;;;9.30;;
8652;SDS011;4364;52.426;9.424;2023-01-10T06:42:24;20.07;;;9.27;;
8652;SDS011;4364;52.426;9.424;2023-01-10T06:44:50;22.33;;;9.10;;
8652;SDS011;4364;52.426;9.424;2023-01-10T06:47:17;20.47;;;9.60;;
8652;SDS011;4364;52.426;9.424;2023-01-10T06:49:43;22.33;;;9.47;;
8652;SDS011;4364;52.426;9.424;2023-01-10T06:52:10;21.50;;;9.07;;
8652;SDS011;4364;52.426;9.424;2023-01-10T06:54:36;28.13;;;9.07;;
8652;SDS011;4364;52.426;9.424;2023-01-10T06:57:03;21.53;;;8.60;;
8652;SDS011;4364;52.426;9.424;2023-01-10T06:59:29;20.83;;;9.00;;
8652;SDS011;4364;52.426;9.424;2023-01-10T07:01:56;20.33;;;8.57;;
8652;SDS011;4364;52.426;9.424;2023-01-10T07:04:23;21.43;;;8.50;;
8652;SDS011;4364;52.426;9.424;2023-01-10T07:06:49;20.17;;;8.63;;
8652;SDS011;4364;52.426;9.424;2023-01-10T07:09:16;20.13;;;7.87;;
8652;SDS011;4364;52.426;9.424;2023-01-10T07:11:42;23.57;;;8.53;;
8652;SDS011;4364;52.426;9.424;2023-01-10T07:14:09;22.77;;;8.43;;
8652;SDS011;4364;52.426;9.424;2023-01-10T07:16:35;18.00;;;7.77;;
8652;SDS011;4364;52.426;9.424;2023-01-10T07:19:02;16.00;;;7.83;;
8652;SDS011;4364;52.426;9.424;2023-01-10T07:21:29;24.90;;;8.67;;
8652;SDS011;4364;52.426;9.424;2023-01-10T07:23:55;22.00;;;7.93;;
8652;SDS011;4364;52.426;9.424;2023-01-10T07:26:21;19.73;;;8.23;;
8652;SDS011;4364;52.426;9.424;2023-01-10T07:28:49;16.60;;;8.53;;
8652;SDS011;4364;52.426;9.424;2023-01-10T07:31:17;24.43;;;9.13;;
8652;SDS011;4364;52.426;9.424;2023-01-10T07:33:44;17.63;;;8.93;;
8652;SDS011;4364;52.426;9.424;2023-01-10T07:36:11;21.77;;;8.77;;
8652;SDS011;4364;52.426;9.424;2023-01-10T07:38:38;20.37;;;8.17;;
8652;SDS011;4364;52.426;9.424;2023-01-10T07:41:04;23.67;;;9.07;;
8652;SDS011;4364;52.426;9.424;2023-01-10T07:43:31;19.60;;;8.40;;
8652;SDS011;4364;52.426;9.424;2023-01-10T07:45:59;16.93;;;8.47;;
8652;SDS011;4364;52.426;9.424;2023-01-10T07:48:27;25.17;;;9.30;;
8652;SDS011;4364;52.426;9.424;2023-01-10T07:50:56;20.20;;;8.30;;
8652;SDS011;4364;52.426;9.424;2023-01-10T07:53:27;21.70;;;7.67;;
8652;SDS011;4364;52.426;9.424;2023-01-10T07:55:57;19.77;;;8.37;;
8652;SDS011;4364;52.426;9.424;2023-01-10T07:58:27;19.07;;;8.77;;
8652;SDS011;4364;52.426;9.424;2023-01-10T08:00:57;19.50;;;7.70;;
8652;SDS011;4364;52.426;9.424;2023-01-10T08:03:26;16.40;;;8.37;;
8652;SDS011;4364;52.426;9.424;2023-01-10T08:05:59;15.53;;;8.83;;
8652;SDS011;4364;52.426;9.424;2023-01-10T08:08:28;19.87;;;8.37;;
8652;SDS011;4364;52.426;9.424;2023-01-10T08:10:54;19.03;;;8.00;;
8652;SDS011;4364;52.426;9.424;2023-01-10T08:13:22;25.97;;;9.60;;
8652;SDS011;4364;52.426;9.424;2023-01-10T08:15:48;19.30;;;9.17;;
8652;SDS011;4364;52.426;9.424;2023-01-10T08:18:17;19.77;;;8.70;;
8652;SDS011;4364;52.426;9.424;2023-01-10T08:20:45;22.83;;;8.83;;
8652;SDS011;4364;52.426;9.424;2023-01-10T08:23:13;17.77;;;9.67;;
8652;SDS011;4364;52.426;9.424;2023-01-10T08:25:40;19.07;;;10.00;;
8652;SDS011;4364;52.426;9.424;2023-01-10T08:28:07;25.00;;;9.70;;
8652;SDS011;4364;52.426;9.424;2023-01-10T08:30:33;19.03;;;9.93;;
8652;SDS011;4364;52.426;9.424;2023-01-10T08:33:00;18.00;;;9.07;;
8652;SDS011;4364;52.426;9.424;2023-01-10T08:35:28;19.80;;;11.43;;
8652;SDS011;4364;52.426;9.424;2023-01-10T08:37:58;25.83;;;11.50;;
8652;SDS011;4364;52.426;9.424;2023-01-10T08:40:26;21.73;;;11.30;;
8652;SDS011;4364;52.426;9.424;2023-01-10T08:42:59;24.93;;;12.27;;
8652;SDS011;4364;52.426;9.424;2023-01-10T08:45:27;22.37;;;11.80;;
8652;SDS011;4364;52.426;9.424;2023-01-10T08:47:53;26.27;;;12.60;;
8652;SDS011;4364;52.426;9.424;2023-01-10T08:50:20;23.90;;;12.77;;
8652;SDS011;4364;52.426;9.424;2023-01-10T08:52:46;31.00;;;13.03;;
8652;SDS011;4364;52.426;9.424;2023-01-10T08:55:13;28.63;;;12.90;;
8652;SDS011;4364;52.426;9.424;2023-01-10T08:57:39;21.90;;;12.83;;
8652;SDS011;4364;52.426;9.424;2023-01-10T09:00:06;25.30;;;13.13;;
8652;SDS011;4364;52.426;9.424;2023-01-10T09:02:33;24.43;;;12.80;;
8652;SDS011;4364;52.426;9.424;2023-01-10T09:05:00;26.70;;;13.57;;
8652;SDS011;4364;52.426;9.424;2023-01-10T09:07:27;27.07;;;13.87;;
8652;SDS011;4364;52.426;9.424;2023-01-10T09:09:53;25.10;;;13.40;;
8652;SDS011;4364;52.426;9.424;2023-01-10T09:12:20;30.00;;;14.83;;
8652;SDS011;4364;52.426;9.424;2023-01-10T09:15:05;31.20;;;14.20;;
8652;SDS011;4364;52.426;9.424;2023-01-10T09:17:32;25.97;;;14.00;;
8652;SDS011;4364;52.426;9.424;2023-01-10T09:19:58;34.23;;;15.00;;
8652;SDS011;4364;52.426;9.424;2023-01-10T09:22:25;25.83;;;13.93;;
8652;SDS011;4364;52.426;9.424;2023-01-10T09:24:52;30.10;;;14.50;;
8652;SDS011;4364;52.426;9.424;2023-01-10T09:27:19;30.77;;;15.23;;
8652;SDS011;4364;52.426;9.424;2023-01-10T09:29:45;31.47;;;15.60;;
8652;SDS011;4364;52.426;9.424;2023-01-10T09:32:11;34.93;;;14.87;;
8652;SDS011;4364;52.426;9.424;2023-01-10T09:34:38;34.27;;;15.03;;
8652;SDS011;4364;52.426;9.424;2023-01-10T09:37:04;29.70;;;15.57;;
8652;SDS011;4364;52.426;9.424;2023-01-10T09:39:32;30.03;;;15.40;;
8652;SDS011;4364;52.426;9.424;2023-01-10T09:42:03;29.43;;;15.17;;
8652;SDS011;4364;52.426;9.424;2023-01-10T09:45:14;95.17;;;32.93;;
8652;SDS011;4364;52.426;9.424;2023-01-10T09:47:50;29.40;;;15.00;;
8652;SDS011;4364;52.426;9.424;2023-01-10T09:53:16;26.40;;;14.87;;
8652;SDS011;4364;52.426;9.424;2023-01-10T09:55:51;27.53;;;14.37;;
8652;SDS011;4364;52.426;9.424;2023-01-10T09:58:21;26.57;;;15.13;;
8652;SDS011;4364;52.426;9.424;2023-01-10T10:00:53;29.57;;;14.17;;
8652;SDS011;4364;52.426;9.424;2023-01-10T10:06:17;26.93;;;14.23;;
8652;SDS011;4364;52.426;9.424;2023-01-10T10:08:44;27.60;;;14.43;;
8652;SDS011;4364;52.426;9.424;2023-01-10T10:11:21;28.97;;;14.77;;
8652;SDS011;4364;52.426;9.424;2023-01-10T10:17:09;23.80;;;13.90;;
8652;SDS011;4364;52.426;9.424;2023-01-10T10:22:44;25.17;;;14.63;;
8652;SDS011;4364;52.426;9.424;2023-01-10T10:28:49;23.77;;;12.13;;
8652;SDS011;4364;52.426;9.424;2023-01-10T10:36:49;26.00;;;12.70;;
8652;SDS011;4364;52.426;9.424;2023-01-10T10:39:20;26.63;;;12.07;;
8652;SDS011;4364;52.426;9.424;2023-01-10T10:41:53;19.93;;;11.47;;
8652;SDS011;4364;52.426;9.424;2023-01-10T10:46:57;25.20;;;11.67;;
8652;SDS011;4364;52.426;9.424;2023-01-10T10:49:32;24.60;;;11.60;;
8652;SDS011;4364;52.426;9.424;2023-01-10T10:52:08;24.43;;;11.03;;
8652;SDS011;4364;52.426;9.424;2023-01-10T10:54:39;27.23;;;10.13;;
8652;SDS011;4364;52.426;9.424;2023-01-10T10:57:06;23.40;;;11.03;;
8652;SDS011;4364;52.426;9.424;2023-01-10T10:59:36;26.10;;;11.40;;
8652;SDS011;4364;52.426;9.424;2023-01-10T11:02:07;23.73;;;11.00;;
8652;SDS011;4364;52.426;9.424;2023-01-10T11:04:43;25.10;;;11.90;;
8652;SDS011;4364;52.426;9.424;2023-01-10T11:07:11;22.77;;;12.03;;
8652;SDS011;4364;52.426;9.424;2023-01-10T11:09:42;21.73;;;11.17;;
8652;SDS011;4364;52.426;9.424;2023-01-10T11:12:31;25.20;;;11.60;;
8652;SDS011;4364;52.426;9.424;2023-01-10T11:15:01;25.90;;;12.23;;
8652;SDS011;4364;52.426;9.424;2023-01-10T11:17:29;24.47;;;12.30;;
8652;SDS011;4364;52.426;9.424;2023-01-10T11:19:58;21.97;;;12.17;;
8652;SDS011;4364;52.426;9.424;2023-01-10T11:22:47;28.00;;;13.53;;
8652;SDS011;4364;52.426;9.424;2023-01-10T11:25:19;27.47;;;13.20;;
8652;SDS011;4364;52.426;9.424;2023-01-10T11:30:20;31.17;;;14.90;;
8652;SDS011;4364;52.426;9.424;2023-01-10T11:32:51;26.53;;;14.33;;
8652;SDS011;4364;52.426;9.424;2023-01-10T11:35:20;30.27;;;15.60;;
8652;SDS011;4364;52.426;9.424;2023-01-10T11:38:00;36.47;;;15.97;;
8652;SDS011;4364;52.426;9.424;2023-01-10T11:40:29;33.70;;;15.37;;
8652;SDS011;4364;52.426;9.424;2023-01-10T11:42:57;33.53;;;16.10;;
8652;SDS011;4364;52.426;9.424;2023-01-10T11:45:31;33.23;;;15.13;;
8652;SDS011;4364;52.426;9.424;2023-01-10T11:48:14;29.20;;;15.17;;
8652;SDS011;4364;52.426;9.424;2023-01-10T11:51:21;35.60;;;14.57;;
8652;SDS011;4364;52.426;9.424;2023-01-10T11:53:54;31.73;;;14.10;;
8652;SDS011;4364;52.426;9.424;2023-01-10T11:56:25;27.73;;;13.33;;
8652;SDS011;4364;52.426;9.424;2023-01-10T11:58:55;29.47;;;14.33;;
8652;SDS011;4364;52.426;9.424;2023-01-10T12:01:28;26.70;;;13.77;;
8652;SDS011;4364;52.426;9.424;2023-01-10T12:04:01;25.73;;;12.40;;
8652;SDS011;4364;52.426;9.424;2023-01-10T12:06:28;27.80;;;12.33;;
8652;SDS011;4364;52.426;9.424;2023-01-10T12:08:55;32.13;;;12.57;;
8652;SDS011;4364;52.426;9.424;2023-01-10T12:11:24;25.53;;;11.43;;
8652;SDS011;4364;52.426;9.424;2023-01-10T12:13:56;25.07;;;12.23;;
8652;SDS011;4364;52.426;9.424;2023-01-10T12:16:28;27.13;;;12.00;;
8652;SDS011;4364;52.426;9.424;2023-01-10T12:18:56;26.83;;;11.50;;
8652;SDS011;4364;52.426;9.424;2023-01-10T12:24:06;25.60;;;11.30;;
8652;SDS011;4364;52.426;9.424;2023-01-10T12:26:44;26.70;;;11.13;;
8652;SDS011;4364;52.426;9.424;2023-01-10T12:29:16;22.57;;;10.23;;
8652;SDS011;4364;52.426;9.424;2023-01-10T12:31:48;23.93;;;10.13;;
8652;SDS011;4364;52.426;9.424;2023-01-10T12:34:24;28.93;;;10.60;;
8652;SDS011;4364;52.426;9.424;2023-01-10T12:39:48;24.77;;;10.20;;
8652;SDS011;4364;52.426;9.424;2023-01-10T12:42:36;24.80;;;10.33;;
8652;SDS011;4364;52.426;9.424;2023-01-10T12:45:32;24.90;;;9.63;;
8652;SDS011;4364;52.426;9.424;2023-01-10T12:48:12;23.47;;;10.67;;
8652;SDS011;4364;52.426;9.424;2023-01-10T12:50:47;26.07;;;9.00;;
8652;SDS011;4364;52.426;9.424;2023-01-10T12:53:24;20.80;;;9.33;;
8652;SDS011;4364;52.426;9.424;2023-01-10T12:55:56;24.93;;;9.30;;
8652;SDS011;4364;52.426;9.424;2023-01-10T12:58:37;28.30;;;10.10;;
8652;SDS011;4364;52.426;9.424;2023-01-10T13:01:04;23.87;;;8.87;;
8652;SDS011;4364;52.426;9.424;2023-01-10T13:03:33;19.27;;;9.67;;
8652;SDS011;4364;52.426;9.424;2023-01-10T13:06:03;20.37;;;9.17;;
8652;SDS011;4364;52.426;9.424;2023-01-10T13:08:33;28.47;;;9.50;;
8652;SDS011;4364;52.426;9.424;2023-01-10T13:11:02;21.40;;;8.57;;
8652;SDS011;4364;52.426;9.424;2023-01-10T13:13:35;23.40;;;8.60;;
8652;SDS011;4364;52.426;9.424;2023-01-10T13:16:23;25.83;;;8.47;;
8652;SDS011;4364;52.426;9.424;2023-01-10T13:18:59;21.40;;;7.90;;
8652;SDS011;4364;52.426;9.424;2023-01-10T13:21:27;17.87;;;7.57;;
8652;SDS011;4364;52.426;9.424;2023-01-10T13:23:59;22.73;;;8.73;;
8652;SDS011;4364;52.426;9.424;2023-01-10T13:26:44;27.53;;;8.50;;
8652;SDS011;4364;52.426;9.424;2023-01-10T13:29:22;32.43;;;9.10;;
8652;SDS011;4364;52.426;9.424;2023-01-10T13:31:51;21.47;;;9.43;;
8652;SDS011;4364;52.426;9.424;2023-01-10T13:34:24;24.30;;;10.10;;
8652;SDS011;4364;52.426;9.424;2023-01-10T13:36:59;23.83;;;9.80;;
8652;SDS011;4364;52.426;9.424;2023-01-10T13:39:55;23.43;;;8.80;;
8652;SDS011;4364;52.426;9.424;2023-01-10T13:42:31;22.33;;;9.13;;
8652;SDS011;4364;52.426;9.424;2023-01-10T13:45:21;20.13;;;8.80;;
8652;SDS011;4364;52.426;9.424;2023-01-10T13:52:49;28.43;;;9.07;;
8652;SDS011;4364;52.426;9.424;2023-01-10T13:57:57;22.30;;;9.13;;
8652;SDS011;4364;52.426;9.424;2023-01-10T14:03:35;21.70;;;7.67;;
8652;SDS011;4364;52.426;9.424;2023-01-10T14:08:56;22.30;;;7.87;;
8652;SDS011;4364;52.426;9.424;2023-01-10T14:11:48;20.77;;;7.03;;
8652;SDS011;4364;52.426;9.424;2023-01-10T14:19:44;26.23;;;7.40;;
8652;SDS011;4364;52.426;9.424;2023-01-10T14:22:24;18.63;;;6.90;;
8652;SDS011;4364;52.426;9.424;2023-01-10T14:24:54;21.13;;;6.60;;
8652;SDS011;4364;52.426;9.424;2023-01-10T14:27:20;16.77;;;5.90;;
8652;SDS011;4364;52.426;9.424;2023-01-10T14:29:57;19.27;;;6.00;;
8652;SDS011;4364;52.426;9.424;2023-01-10T14:35:04;14.73;;;5.33;;
8652;SDS011;4364;52.426;9.424;2023-01-10T14:37:41;13.87;;;5.60;;
8652;SDS011;4364;52.426;9.424;2023-01-10T14:40:16;16.27;;;5.13;;
8652;SDS011;4364;52.426;9.424;2023-01-10T14:43:08;17.73;;;5.10;;
8652;SDS011;4364;52.426;9.424;2023-01-10T14:45:42;18.40;;;5.47;;
8652;SDS011;4364;52.426;9.424;2023-01-10T14:48:26;15.37;;;5.00;;
8652;SDS011;4364;52.426;9.424;2023-01-10T14:53:34;15.77;;;5.37;;
8652;SDS011;4364;52.426;9.424;2023-01-10T14:56:01;17.13;;;5.23;;
8652;SDS011;4364;52.426;9.424;2023-01-10T14:58:27;13.57;;;5.70;;
8652;SDS011;4364;52.426;9.424;2023-01-10T15:00:54;15.47;;;5.70;;
8652;SDS011;4364;52.426;9.424;2023-01-10T15:03:22;20.20;;;6.13;;
8652;SDS011;4364;52.426;9.424;2023-01-10T15:05:53;18.53;;;6.00;;
8652;SDS011;4364;52.426;9.424;2023-01-10T15:08:23;21.10;;;6.00;;
8652;SDS011;4364;52.426;9.424;2023-01-10T15:10:52;22.27;;;6.30;;
8652;SDS011;4364;52.426;9.424;2023-01-10T15:13:24;19.73;;;6.90;;
8652;SDS011;4364;52.426;9.424;2023-01-10T15:15:53;25.23;;;9.27;;
8652;SDS011;4364;52.426;9.424;2023-01-10T15:20:54;25.73;;;9.70;;
8652;SDS011;4364;52.426;9.424;2023-01-10T15:23:22;28.67;;;9.10;;
8652;SDS011;4364;52.426;9.424;2023-01-10T15:25:59;26.13;;;7.93;;
8652;SDS011;4364;52.426;9.424;2023-01-10T15:28:28;19.27;;;6.93;;
8652;SDS011;4364;52.426;9.424;2023-01-10T15:30:55;21.50;;;7.47;;
8652;SDS011;4364;52.426;9.424;2023-01-10T15:33:27;15.27;;;6.47;;
8652;SDS011;4364;52.426;9.424;2023-01-10T15:35:56;18.10;;;6.10;;
8652;SDS011;4364;52.426;9.424;2023-01-10T15:38:28;19.27;;;6.53;;
8652;SDS011;4364;52.426;9.424;2023-01-10T15:41:00;18.13;;;5.87;;
8652;SDS011;4364;52.426;9.424;2023-01-10T15:43:29;22.33;;;6.13;;
8652;SDS011;4364;52.426;9.424;2023-01-10T15:45:57;16.43;;;5.73;;
8652;SDS011;4364;52.426;9.424;2023-01-10T15:51:25;15.80;;;6.20;;
8652;SDS011;4364;52.426;9.424;2023-01-10T15:54:02;17.33;;;5.10;;
8652;SDS011;4364;52.426;9.424;2023-01-10T15:56:48;18.23;;;4.87;;
8652;SDS011;4364;52.426;9.424;2023-01-10T15:59:21;16.50;;;4.97;;
8652;SDS011;4364;52.426;9.424;2023-01-10T16:01:57;12.70;;;4.93;;
8652;SDS011;4364;52.426;9.424;2023-01-10T16:04:41;15.23;;;4.23;;
8652;SDS011;4364;52.426;9.424;2023-01-10T16:07:14;12.30;;;4.33;;
8652;SDS011;4364;52.426;9.424;2023-01-10T16:09:54;16.00;;;4.53;;
8652;SDS011;4364;52.426;9.424;2023-01-10T16:12:38;12.60;;;4.60;;
8652;SDS011;4364;52.426;9.424;2023-01-10T16:15:26;14.90;;;4.30;;
8652;SDS011;4364;52.426;9.424;2023-01-10T16:17:54;13.97;;;4.83;;
8652;SDS011;4364;52.426;9.424;2023-01-10T16:20:31;13.03;;;4.53;;
8652;SDS011;4364;52.426;9.424;2023-01-10T16:23:01;14.20;;;5.43;;
8652;SDS011;4364;52.426;9.424;2023-01-10T16:25:31;11.33;;;3.83;;
8652;SDS011;4364;52.426;9.424;2023-01-10T16:28:00;13.97;;;4.13;;
8652;SDS011;4364;52.426;9.424;2023-01-10T16:30:28;13.03;;;3.90;;
8652;SDS011;4364;52.426;9.424;2023-01-10T16:32:57;12.87;;;3.70;;
8652;SDS011;4364;52.426;9.424;2023-01-10T16:35:27;15.27;;;3.70;;
8652;SDS011;4364;52.426;9.424;2023-01-10T16:37:54;16.23;;;3.97;;
8652;SDS011;4364;52.426;9.424;2023-01-10T16:40:24;14.03;;;4.03;;
8652;SDS011;4364;52.426;9.424;2023-01-10T16:42:53;9.97;;;3.40;;
8652;SDS011;4364;52.426;9.424;2023-01-10T16:45:38;12.70;;;3.77;;